Time;durP1;ratioP1;P1;durP2;ratioP2;P2;SDS_P1;SDS_P2;PMS_P1;PMS_P2;Temp;Humidity;BMP_temperature;BMP_pressure;BME280_temperature;BME280_humidity;BME280_pressure;Samples;Min_cycle;Max_cycle;Signal;HPM_P1;HPM_P2
2022/06/16 00:00:10;;;;;;;8.93;4.63;;;13.80;99.90;;;;;;5071673;28;20241;-67
2022/06/16 00:02:44;;;;;;;10.43;4.00;;;13.80;99.90;;;;;;5074613;28;20521;-67
2022/06/16 00:05:12;;;;;;;7.93;4.10;;;13.70;99.90;;;;;;5075887;28;20174;-67
2022/06/16 00:07:39;;;;;;;10.35;4.72;;;13.70;99.90;;;;;;5076525;28;20044;-67
2022/06/16 00:10:07;;;;;;;7.25;4.40;;;13.60;99.90;;;;;;5058436;28;20469;-66
2022/06/16 00:12:33;;;;;;;9.40;5.07;;;13.60;99.90;;;;;;5063843;28;20050;-68
2022/06/16 00:14:59;;;;;;;9.27;4.80;;;13.40;99.90;;;;;;5081534;28;20384;-67
2022/06/16 00:17:25;;;;;;;10.13;4.05;;;13.30;99.90;;;;;;5084620;28;20172;-66
2022/06/16 00:19:51;;;;;;;9.20;5.10;;;13.40;99.90;;;;;;5063889;28;20045;-67
2022/06/16 00:22:17;;;;;;;9.10;4.50;;;13.40;99.90;;;;;;5065372;28;20048;-68
2022/06/16 00:24:43;;;;;;;11.60;5.20;;;13.40;99.90;;;;;;5084646;28;20067;-67
2022/06/16 00:27:09;;;;;;;13.07;5.20;;;13.40;99.90;;;;;;5074794;28;20399;-67
2022/06/16 00:29:35;;;;;;;7.00;4.50;;;13.40;99.90;;;;;;5076091;28;20031;-67
2022/06/16 00:32:01;;;;;;;11.80;5.00;;;13.40;99.90;;;;;;5085029;28;20051;-67
2022/06/16 00:34:28;;;;;;;10.05;5.55;;;13.30;99.90;;;;;;5080044;28;20139;-70
2022/06/16 00:36:54;;;;;;;12.27;5.30;;;13.20;99.90;;;;;;5078232;28;20113;-68
2022/06/16 00:39:20;;;;;;;8.20;4.65;;;13.20;99.90;;;;;;5062248;28;20480;-68
2022/06/16 00:41:46;;;;;;;10.40;5.38;;;13.20;99.90;;;;;;5058529;28;20050;-67
2022/06/16 00:44:21;;;;;;;9.70;5.13;;;13.20;99.90;;;;;;5072905;28;20075;-68
2022/06/16 00:46:47;;;;;;;10.70;4.88;;;13.30;99.90;;;;;;5067602;28;20051;-68
2022/06/16 00:49:14;;;;;;;6.50;4.53;;;13.30;99.90;;;;;;5075530;28;20040;-67
2022/06/16 00:51:47;;;;;;;8.02;4.57;;;13.20;99.90;;;;;;5073305;28;20036;-67
2022/06/16 00:54:21;;;;;;;7.35;4.47;;;13.20;99.90;;;;;;5074839;28;20083;-67
2022/06/16 00:56:49;;;;;;;10.23;4.95;;;13.10;99.90;;;;;;5057589;28;20392;-68
2022/06/16 00:59:15;;;;;;;9.70;4.82;;;13.10;99.90;;;;;;5075843;28;20055;-66
2022/06/16 01:01:43;;;;;;;9.77;5.43;;;13.10;99.90;;;;;;5071178;28;20044;-66
2022/06/16 01:06:57;;;;;;;7.82;4.95;;;13.20;99.90;;;;;;5056970;28;20036;-67
2022/06/16 01:09:28;;;;;;;8.65;4.57;;;13.20;99.90;;;;;;5073753;28;20067;-67
2022/06/16 01:15:10;;;;;;;9.80;4.90;;;13.10;99.90;;;;;;5080348;28;20302;-68
2022/06/16 01:17:55;;;;;;;8.60;5.13;;;13.00;99.90;;;;;;5080286;28;20472;-68
2022/06/16 01:20:45;;;;;;;9.32;5.50;;;12.90;99.90;;;;;;5065385;28;20043;-68
2022/06/16 01:23:16;;;;;;;8.85;5.45;;;13.00;99.90;;;;;;5072798;28;20047;-68
2022/06/16 01:26:01;;;;;;;9.93;5.30;;;13.00;99.90;;;;;;5073802;28;20051;-67
2022/06/16 01:28:55;;;;;;;9.43;5.43;;;13.00;99.90;;;;;;5074995;28;20044;-67
2022/06/16 01:31:31;;;;;;;7.88;4.82;;;13.00;99.90;;;;;;5048743;28;20405;-67
2022/06/16 01:34:16;;;;;;;7.90;5.25;;;12.90;99.90;;;;;;5067305;28;20056;-66
2022/06/16 01:37:01;;;;;;;7.05;5.05;;;12.90;99.90;;;;;;5072103;28;20039;-67
2022/06/16 01:39:52;;;;;;;10.15;5.32;;;12.90;99.90;;;;;;5072250;28;20044;-68
2022/06/16 01:42:50;;;;;;;6.93;5.20;;;12.90;99.90;;;;;;5060921;28;20044;-67
2022/06/16 01:45:24;;;;;;;9.32;5.50;;;12.80;99.90;;;;;;5028395;28;20306;-67
2022/06/16 01:47:51;;;;;;;7.43;4.90;;;12.80;99.90;;;;;;5074900;28;20062;-69
2022/06/16 01:50:33;;;;;;;8.65;4.80;;;12.70;99.90;;;;;;5052675;28;20039;-67
2022/06/16 01:53:17;;;;;;;10.27;5.47;;;12.60;99.90;;;;;;5069013;28;20133;-67
2022/06/16 01:55:54;;;;;;;10.27;5.43;;;12.60;99.90;;;;;;5064034;28;20053;-67
2022/06/16 01:58:28;;;;;;;10.00;5.45;;;12.50;99.90;;;;;;5045897;28;20044;-67
2022/06/16 02:00:57;;;;;;;8.25;5.70;;;12.50;99.90;;;;;;5052870;28;20102;-66
2022/06/16 02:03:46;;;;;;;7.95;5.25;;;12.50;99.90;;;;;;5045113;28;20490;-67
2022/06/16 02:06:19;;;;;;;9.13;5.00;;;12.50;99.90;;;;;;5055393;28;20122;-66
2022/06/16 02:08:49;;;;;;;13.00;5.65;;;12.60;99.90;;;;;;5033978;28;20091;-67
2022/06/16 02:11:31;;;;;;;10.02;5.43;;;12.60;99.90;;;;;;5073472;28;20505;-66
2022/06/16 02:13:57;;;;;;;;;;;12.70;99.90;;;;;;5053187;28;20037;-68
2022/06/16 02:16:27;;;;;;;11.75;5.95;;;12.70;99.90;;;;;;5050129;28;19917;-67
2022/06/16 02:18:54;;;;;;;11.27;5.90;;;12.70;99.90;;;;;;5034904;28;20053;-71
2022/06/16 02:21:33;;;;;;;12.30;6.53;;;12.80;99.90;;;;;;5053242;28;20102;-66
2022/06/16 02:24:02;;;;;;;12.05;6.30;;;12.90;99.90;;;;;;5038080;28;20041;-69
2022/06/16 02:26:28;;;;;;;9.02;6.45;;;12.90;99.90;;;;;;5054849;28;20071;-68
2022/06/16 02:29:00;;;;;;;8.25;5.78;;;12.90;99.90;;;;;;5047975;28;20045;-67
2022/06/16 02:31:37;;;;;;;9.32;5.88;;;12.90;99.90;;;;;;5047032;28;20050;-69
2022/06/16 02:34:13;;;;;;;10.55;6.28;;;12.80;99.90;;;;;;5074160;28;20059;-67
2022/06/16 02:37:07;;;;;;;7.80;5.40;;;12.90;99.90;;;;;;5041192;28;20052;-67
2022/06/16 02:39:51;;;;;;;9.38;5.70;;;12.90;99.90;;;;;;5037765;28;20045;-67
2022/06/16 02:42:35;;;;;;;7.47;5.40;;;13.00;99.90;;;;;;5040471;28;20431;-67
2022/06/16 02:45:28;;;;;;;12.65;5.57;;;13.00;99.90;;;;;;5039955;28;20032;-70
2022/06/16 02:48:00;;;;;;;11.55;5.43;;;13.00;99.90;;;;;;5054464;28;20047;-67
2022/06/16 02:51:16;;;;;;;8.18;5.20;;;13.10;99.90;;;;;;5054043;28;20460;-67
2022/06/16 02:56:47;;;;;;;11.05;5.65;;;13.10;99.90;;;;;;5063024;28;20064;-68
2022/06/16 02:59:52;;;;;;;11.50;5.20;;;13.10;99.90;;;;;;5046219;28;20453;-68
2022/06/16 03:02:20;;;;;;;11.57;4.93;;;13.10;99.90;;;;;;5067615;28;21459;-67
2022/06/16 03:04:56;;;;;;;7.25;4.50;;;13.10;99.90;;;;;;5078613;28;20048;-67
2022/06/16 03:07:23;;;;;;;10.00;5.28;;;13.10;99.90;;;;;;5065552;28;20485;-67
2022/06/16 03:09:49;;;;;;;11.52;5.20;;;13.00;99.90;;;;;;5063341;28;20043;-66
2022/06/16 03:12:16;;;;;;;8.50;5.13;;;13.10;99.90;;;;;;5045052;28;20110;-67
2022/06/16 03:14:43;;;;;;;9.95;5.10;;;13.10;99.90;;;;;;5062580;28;20043;-68
2022/06/16 03:17:11;;;;;;;10.82;5.57;;;13.10;99.90;;;;;;5064196;28;20036;-68
2022/06/16 03:19:37;;;;;;;9.80;5.07;;;13.00;99.90;;;;;;5046712;28;20052;-67
2022/06/16 03:22:05;;;;;;;8.55;5.00;;;13.00;99.90;;;;;;5064523;28;20110;-67
2022/06/16 03:24:31;;;;;;;10.15;5.35;;;13.00;99.90;;;;;;5049356;28;20515;-67
2022/06/16 03:26:57;;;;;;;8.73;5.07;;;13.00;99.90;;;;;;5050798;28;20494;-66
2022/06/16 03:29:23;;;;;;;7.72;4.55;;;12.90;99.90;;;;;;5068340;28;20159;-67
2022/06/16 03:31:49;;;;;;;7.97;4.20;;;12.80;99.90;;;;;;5052448;28;20417;-67
2022/06/16 03:34:15;;;;;;;6.88;4.47;;;12.80;99.90;;;;;;5045716;28;20091;-66
2022/06/16 03:36:42;;;;;;;9.30;4.60;;;12.70;99.90;;;;;;5052511;28;20036;-66
2022/06/16 03:39:08;;;;;;;7.28;4.57;;;12.70;99.90;;;;;;5068886;28;20056;-68
2022/06/16 03:41:34;;;;;;;9.60;4.68;;;12.80;99.90;;;;;;5067060;28;20036;-69
2022/06/16 03:44:00;;;;;;;11.63;4.78;;;12.70;99.90;;;;;;5066807;28;20507;-68
2022/06/16 03:46:26;;;;;;;7.75;4.60;;;12.80;99.90;;;;;;5066966;28;20036;-67
2022/06/16 03:48:53;;;;;;;9.65;4.75;;;12.90;99.90;;;;;;5049746;28;20037;-68
2022/06/16 03:51:19;;;;;;;10.43;5.35;;;12.90;99.90;;;;;;5055766;28;20037;-67
2022/06/16 03:53:45;;;;;;;8.57;5.28;;;13.00;99.90;;;;;;5067975;28;20044;-68
2022/06/16 03:56:12;;;;;;;7.03;4.70;;;13.00;99.90;;;;;;5047722;28;20575;-67
2022/06/16 03:58:38;;;;;;;8.02;4.85;;;12.90;99.90;;;;;;5043031;28;20281;-68
2022/06/16 04:01:04;;;;;;;8.50;5.00;;;12.90;99.90;;;;;;5055896;28;21623;-67
2022/06/16 04:06:15;;;;;;;7.65;4.88;;;12.90;99.90;;;;;;5058319;28;20433;-67
2022/06/16 04:08:42;;;;;;;11.10;4.72;;;12.90;99.90;;;;;;5061124;28;20102;-68
2022/06/16 04:14:04;;;;;;;10.93;5.40;;;13.10;99.90;;;;;;5060071;28;20131;-67
2022/06/16 04:16:33;;;;;;;9.65;4.72;;;13.20;99.90;;;;;;5057635;28;20045;-66
2022/06/16 04:19:00;;;;;;;7.85;4.45;;;13.30;99.90;;;;;;5064204;28;20044;-66
2022/06/16 04:21:26;;;;;;;10.05;5.05;;;13.40;99.90;;;;;;5062598;28;20092;-70
2022/06/16 04:23:53;;;;;;;8.82;4.25;;;13.50;99.90;;;;;;5058638;28;20063;-66
2022/06/16 04:26:19;;;;;;;9.43;4.78;;;13.60;99.90;;;;;;5058502;28;20041;-67
2022/06/16 04:28:45;;;;;;;10.70;4.60;;;13.60;99.90;;;;;;5062318;28;20040;-67
2022/06/16 04:31:10;;;;;;;7.07;4.00;;;13.70;99.90;;;;;;5059387;28;20127;-67
2022/06/16 04:33:37;;;;;;;7.63;4.07;;;13.80;99.90;;;;;;5059069;28;20032;-66
2022/06/16 04:36:03;;;;;;;8.70;4.10;;;13.90;99.90;;;;;;5040104;28;20488;-67
2022/06/16 04:38:29;;;;;;;7.82;4.45;;;13.90;99.90;;;;;;5042187;28;20057;-68
2022/06/16 04:40:57;;;;;;;7.55;4.45;;;14.00;99.90;;;;;;5076293;28;20425;-68
2022/06/16 04:43:25;;;;;;;6.05;4.00;;;14.00;99.90;;;;;;5041268;28;20045;-67
2022/06/16 04:45:51;;;;;;;7.05;4.97;;;14.00;99.90;;;;;;5059308;28;20033;-66
2022/06/16 04:48:17;;;;;;;9.50;4.50;;;14.00;99.90;;;;;;5043803;28;20074;-67
2022/06/16 04:50:43;;;;;;;5.60;4.30;;;14.10;99.90;;;;;;5058580;28;20095;-67
2022/06/16 04:53:09;;;;;;;7.25;4.15;;;14.10;99.90;;;;;;5058930;28;20064;-67
2022/06/16 04:55:35;;;;;;;10.00;4.55;;;14.20;99.90;;;;;;5057804;28;20057;-66
2022/06/16 04:58:05;;;;;;;11.43;4.40;;;14.20;99.90;;;;;;5041431;28;20379;-67
2022/06/16 05:00:31;;;;;;;8.70;4.25;;;14.20;99.90;;;;;;5075198;28;20038;-67
2022/06/16 05:02:57;;;;;;;7.55;3.97;;;14.30;99.90;;;;;;5063000;28;20067;-67
2022/06/16 05:05:24;;;;;;;8.10;3.88;;;14.30;99.90;;;;;;5056083;28;20119;-67
2022/06/16 05:07:50;;;;;;;6.82;4.03;;;14.40;99.90;;;;;;5025012;28;20391;-70
2022/06/16 05:10:16;;;;;;;8.48;4.00;;;14.50;99.90;;;;;;5038241;28;20041;-67
2022/06/16 05:12:42;;;;;;;5.40;3.95;;;14.60;99.90;;;;;;5057494;28;20045;-67
2022/06/16 05:15:09;;;;;;;7.60;4.07;;;14.70;99.90;;;;;;5059076;28;20056;-68
2022/06/16 05:17:35;;;;;;;7.15;3.95;;;14.90;99.90;;;;;;5059513;28;20076;-69
2022/06/16 05:20:01;;;;;;;7.63;4.05;;;14.90;99.90;;;;;;5060285;28;20044;-68
2022/06/16 05:22:27;;;;;;;6.38;3.45;;;15.00;99.90;;;;;;5040887;28;20041;-67
2022/06/16 05:24:53;;;;;;;10.23;3.72;;;15.00;99.90;;;;;;5058774;28;20118;-69
2022/06/16 05:27:20;;;;;;;6.50;3.05;;;15.10;99.90;;;;;;5058153;28;20436;-67
2022/06/16 05:29:46;;;;;;;3.22;2.83;;;15.20;99.90;;;;;;5041651;28;20040;-67
2022/06/16 05:32:12;;;;;;;6.10;3.00;;;15.40;99.90;;;;;;5041817;28;20072;-68
2022/06/16 05:34:38;;;;;;;7.65;3.88;;;15.60;99.90;;;;;;5058343;28;20421;-69
2022/06/16 05:37:05;;;;;;;7.53;3.10;;;15.80;99.90;;;;;;5041163;28;20041;-67
2022/06/16 05:39:31;;;;;;;5.47;3.00;;;16.00;99.90;;;;;;5056346;28;20116;-67
2022/06/16 05:41:57;;;;;;;8.90;2.90;;;16.30;99.90;;;;;;5060712;28;20045;-66
2022/06/16 05:44:23;;;;;;;5.15;2.33;;;16.20;99.90;;;;;;5056835;28;20084;-68
2022/06/16 05:46:50;;;;;;;4.22;2.58;;;16.30;99.90;;;;;;5042275;28;20076;-67
2022/06/16 05:49:16;;;;;;;7.18;2.55;;;16.20;99.90;;;;;;5059041;28;20049;-67
2022/06/16 05:51:42;;;;;;;4.53;3.00;;;16.20;99.90;;;;;;5046272;28;20056;-67
2022/06/16 05:54:08;;;;;;;5.10;2.20;;;16.40;99.90;;;;;;5039031;28;20049;-67
2022/06/16 05:56:35;;;;;;;3.25;2.10;;;16.40;99.90;;;;;;5043615;28;20455;-66
2022/06/16 05:59:01;;;;;;;6.93;2.20;;;16.40;99.90;;;;;;5064745;28;20103;-66
2022/06/16 06:01:28;;;;;;;4.03;1.90;;;16.50;99.90;;;;;;5051129;28;20040;-67
2022/06/16 06:03:54;;;;;;;3.38;1.60;;;16.60;99.90;;;;;;5037434;28;20052;-69
2022/06/16 06:06:20;;;;;;;4.78;1.70;;;16.60;99.90;;;;;;5060012;28;20049;-67
2022/06/16 06:17:10;;;;;;;4.93;1.90;;;16.80;99.90;;;;;;5050490;28;20045;-66
2022/06/16 06:19:36;;;;;;;7.85;5.57;;;17.00;99.90;;;;;;5050618;28;20056;-70
2022/06/16 06:22:09;;;;;;;17.45;12.95;;;17.10;99.90;;;;;;5033108;28;20380;-67
2022/06/16 06:24:40;;;;;;;14.13;8.15;;;17.20;99.90;;;;;;5048826;28;20101;-68
2022/06/16 06:27:33;;;;;;;11.70;8.70;;;17.20;99.90;;;;;;5048238;28;20045;-68
2022/06/16 06:30:00;;;;;;;12.02;8.80;;;17.30;99.90;;;;;;5030348;28;20049;-67
2022/06/16 06:32:27;;;;;;;17.58;15.77;;;17.40;99.90;;;;;;5038607;28;20103;-67
2022/06/16 06:34:54;;;;;;;19.48;17.40;;;17.50;99.90;;;;;;5033703;28;20044;-67
2022/06/16 06:37:23;;;;;;;18.83;14.20;;;17.60;99.90;;;;;;5050338;28;20509;-67
2022/06/16 06:39:51;;;;;;;12.07;8.60;;;17.60;99.90;;;;;;5057811;28;20052;-68
2022/06/16 06:42:17;;;;;;;10.07;7.80;;;17.70;99.90;;;;;;5020399;28;20049;-67
2022/06/16 06:44:43;;;;;;;10.40;5.93;;;17.70;99.90;;;;;;5031212;28;20323;-67
2022/06/16 06:47:37;;;;;;;10.13;7.07;;;17.80;99.90;;;;;;5055368;28;20055;-69
2022/06/16 06:50:04;;;;;;;6.25;4.75;;;17.90;99.90;;;;;;5049003;28;20477;-67
2022/06/16 06:52:30;;;;;;;6.57;3.67;;;18.00;99.90;;;;;;5051825;28;20496;-67
2022/06/16 06:54:56;;;;;;;6.70;3.88;;;18.00;99.90;;;;;;5044660;28;20175;-70
2022/06/16 06:57:29;;;;;;;7.60;4.28;;;18.20;99.90;;;;;;5074748;28;20048;-67
2022/06/16 06:59:55;;;;;;;4.68;3.38;;;18.20;99.90;;;;;;5089100;28;20088;-71
2022/06/16 07:02:22;;;;;;;5.13;4.10;;;18.20;99.90;;;;;;5055769;28;20048;-68
2022/06/16 07:04:48;;;;;;;7.28;4.70;;;18.30;99.90;;;;;;5073382;28;20048;-68
2022/06/16 07:07:18;;;;;;;7.53;6.13;;;18.40;99.90;;;;;;5061524;28;20044;-68
2022/06/16 07:09:44;;;;;;;7.35;5.22;;;18.50;99.90;;;;;;5077611;28;20365;-67
2022/06/16 07:12:14;;;;;;;8.18;4.90;;;18.60;99.90;;;;;;5079929;28;20039;-67
2022/06/16 07:14:41;;;;;;;4.55;4.15;;;18.70;99.90;;;;;;5025607;28;20059;-67
2022/06/16 07:17:07;;;;;;;8.48;4.78;;;18.70;99.90;;;;;;5068586;28;20048;-68
2022/06/16 07:19:34;;;;;;;4.25;2.28;;;18.80;99.90;;;;;;5040949;28;20094;-67
2022/06/16 07:22:00;;;;;;;3.97;2.17;;;19.00;99.90;;;;;;5080015;28;20071;-69
2022/06/16 07:24:26;;;;;;;3.75;2.42;;;18.90;99.90;;;;;;5054051;28;20043;-68
2022/06/16 07:26:52;;;;;;;3.15;2.35;;;18.90;99.90;;;;;;5059622;28;20384;-67
2022/06/16 07:29:18;;;;;;;3.83;2.50;;;18.90;99.90;;;;;;5041163;28;20074;-67
2022/06/16 07:31:44;;;;;;;3.95;2.42;;;19.00;99.90;;;;;;5057101;28;20139;-67
2022/06/16 07:34:10;;;;;;;5.38;2.25;;;18.90;99.90;;;;;;5072719;28;20113;-67
2022/06/16 07:36:36;;;;;;;2.90;2.00;;;19.10;99.90;;;;;;5073506;28;20539;-67
2022/06/16 07:39:05;;;;;;;3.22;1.95;;;19.20;99.90;;;;;;5073143;28;20341;-67
2022/06/16 07:41:36;;;;;;;4.72;2.20;;;19.10;99.90;;;;;;5057956;28;20105;-68
2022/06/16 07:44:11;;;;;;;4.30;2.22;;;19.10;99.90;;;;;;5057296;28;20048;-68
2022/06/16 07:46:38;;;;;;;2.53;1.70;;;19.20;99.90;;;;;;5075117;28;20429;-67
2022/06/16 07:49:10;;;;;;;3.45;2.03;;;19.40;99.90;;;;;;5057473;28;20036;-68
2022/06/16 07:51:36;;;;;;;;;;;19.60;99.90;;;;;;5077488;28;20039;-67
2022/06/16 07:54:01;;;;;;;3.65;2.10;;;19.50;97.90;;;;;;5076414;28;19992;-68
2022/06/16 07:56:28;;;;;;;4.57;2.00;;;19.50;99.90;;;;;;5097173;28;20051;-67
2022/06/16 07:58:54;;;;;;;2.92;1.90;;;19.70;99.90;;;;;;5079394;28;20089;-67
2022/06/16 08:01:20;;;;;;;4.15;2.10;;;19.80;99.90;;;;;;5076435;28;20051;-67
2022/06/16 08:03:46;;;;;;;4.72;1.83;;;19.80;99.90;;;;;;5095348;28;20044;-67
2022/06/16 08:06:17;;;;;;;4.85;2.13;;;19.90;99.00;;;;;;5057633;28;20519;-67
2022/06/16 08:08:43;;;;;;;4.63;2.30;;;20.10;99.30;;;;;;5076754;28;20399;-67
2022/06/16 08:12:03;;;;;;;2.05;1.85;;;20.20;98.20;;;;;;5053881;28;20118;-68
2022/06/16 08:13:58;;;;;;;1.95;1.08;;;20.30;97.70;;;;;;5070614;28;20039;-68
2022/06/16 08:16:25;;;;;;;2.40;1.10;;;20.40;93.50;;;;;;5075223;28;20043;-68
2022/06/16 08:18:51;;;;;;;4.07;1.17;;;20.30;93.70;;;;;;5073229;28;20063;-67
2022/06/16 08:21:17;;;;;;;2.28;0.93;;;20.50;92.30;;;;;;5070920;28;20063;-68
2022/06/16 08:23:43;;;;;;;3.03;1.00;;;20.50;91.80;;;;;;5087756;28;20357;-68
2022/06/16 08:26:09;;;;;;;3.65;0.80;;;20.80;91.50;;;;;;5070723;28;20047;-68
2022/06/16 08:28:38;;;;;;;4.75;1.00;;;20.80;89.30;;;;;;5069163;28;20056;-67
2022/06/16 08:31:05;;;;;;;2.95;1.02;;;20.90;84.20;;;;;;5068115;28;20127;-67
2022/06/16 08:33:32;;;;;;;2.63;1.23;;;20.90;85.30;;;;;;5051042;28;20044;-69
2022/06/16 08:35:58;;;;;;;3.80;1.50;;;20.90;84.90;;;;;;5071082;28;20051;-71
2022/06/16 08:38:24;;;;;;;4.50;1.50;;;20.90;83.70;;;;;;5051935;28;20040;-70
2022/06/16 08:41:11;;;;;;;3.08;1.33;;;21.00;84.00;;;;;;5066834;28;20048;-78
2022/06/16 08:44:00;;;;;;;1.40;1.30;;;21.00;83.40;;;;;;5068280;28;20032;-73
2022/06/16 08:46:31;;;;;;;4.75;1.80;;;21.10;81.30;;;;;;5072435;28;20442;-74
2022/06/16 08:49:10;;;;;;;4.53;1.70;;;21.20;80.80;;;;;;5070787;28;20474;-71
2022/06/16 08:52:04;;;;;;;3.55;1.60;;;21.20;77.40;;;;;;5054117;28;20115;-71
2022/06/16 08:54:42;;;;;;;4.45;1.80;;;21.10;78.00;;;;;;5070190;28;20051;-71
2022/06/16 08:57:35;;;;;;;4.25;1.73;;;21.30;80.00;;;;;;5052142;28;20109;-74
2022/06/16 09:00:13;;;;;;;6.15;1.65;;;21.20;79.30;;;;;;5068509;28;20040;-72
2022/06/16 09:02:51;;;;;;;3.28;1.90;;;21.50;80.20;;;;;;5069890;28;20040;-71
2022/06/16 09:05:34;;;;;;;4.22;1.50;;;21.70;82.50;;;;;;5069426;28;20445;-72
2022/06/16 09:08:20;;;;;;;4.88;1.48;;;21.70;78.40;;;;;;5085364;28;20388;-72
2022/06/16 09:10:55;;;;;;;3.08;2.00;;;21.90;78.20;;;;;;5046295;28;20079;-71
2022/06/16 09:13:33;;;;;;;3.08;1.20;;;21.70;74.90;;;;;;5070091;28;20097;-70
2022/06/16 09:16:28;;;;;;;3.03;1.38;;;21.70;74.90;;;;;;5068573;28;20093;-71
2022/06/16 09:19:16;;;;;;;4.05;1.50;;;21.80;74.70;;;;;;5086687;28;20058;-74
2022/06/16 09:22:16;;;;;;;3.45;1.35;;;22.00;74.30;;;;;;5067980;28;20031;-71
2022/06/16 09:25:18;;;;;;;4.00;1.70;;;22.20;70.10;;;;;;5085499;28;20553;-71
2022/06/16 09:28:01;;;;;;;2.72;1.58;;;22.20;69.30;;;;;;5068776;28;20642;-71
2022/06/16 09:30:33;;;;;;;3.05;1.60;;;22.30;68.60;;;;;;5069239;28;20388;-71
2022/06/16 09:33:32;;;;;;;2.22;1.65;;;22.30;67.00;;;;;;5068290;28;20622;-71
2022/06/16 09:36:31;;;;;;;5.75;1.67;;;22.30;64.30;;;;;;5060579;28;20076;-72
2022/06/16 09:39:26;;;;;;;4.35;1.88;;;22.50;65.50;;;;;;5067136;28;20085;-71
2022/06/16 09:45:17;;;;;;;4.22;1.70;;;22.60;65.00;;;;;;5067878;28;20095;-72
2022/06/16 09:47:52;;;;;;;4.05;1.92;;;22.60;64.50;;;;;;5052017;28;20046;-77
2022/06/16 09:50:26;;;;;;;9.90;2.00;;;22.80;65.90;;;;;;5051881;28;20066;-69
2022/06/16 09:52:57;;;;;;;5.05;2.30;;;22.90;65.80;;;;;;5065954;28;20063;-72
2022/06/16 09:55:29;;;;;;;;;;;23.10;65.10;;;;;;5068257;28;20048;-69
2022/06/16 09:58:02;;;;;;;4.75;2.40;;;23.00;62.20;;;;;;5053609;28;19922;-70
2022/06/16 10:00:35;;;;;;;4.30;2.30;;;23.20;65.00;;;;;;5050532;28;20418;-70
2022/06/16 10:03:16;;;;;;;4.53;2.50;;;23.20;65.10;;;;;;5051901;28;20054;-70
2022/06/16 10:05:42;;;;;;;;;;;23.20;63.00;;;;;;5067709;28;20040;-70
2022/06/16 10:08:18;;;;;;;4.20;2.67;;;23.30;64.30;;;;;;5085855;28;19935;-70
2022/06/16 10:11:03;;;;;;;5.95;2.90;;;23.50;65.00;;;;;;5068898;28;20495;-70
2022/06/16 10:13:34;;;;;;;6.13;2.90;;;23.60;62.60;;;;;;5067628;28;20170;-73
2022/06/16 10:16:19;;;;;;;6.72;3.53;;;23.70;64.50;;;;;;5067726;28;20494;-69
2022/06/16 10:18:47;;;;;;;5.80;3.42;;;23.60;64.00;;;;;;5081794;28;20028;-69
2022/06/16 10:21:15;;;;;;;6.18;3.83;;;23.80;65.10;;;;;;5068560;28;20476;-70
2022/06/16 10:24:02;;;;;;;6.30;3.67;;;23.80;65.10;;;;;;5054978;28;20044;-70
2022/06/16 10:26:28;;;;;;;7.00;3.75;;;24.20;64.90;;;;;;5051532;28;20130;-69
2022/06/16 10:29:28;;;;;;;6.68;4.60;;;24.20;64.70;;;;;;5069145;28;20484;-70
2022/06/16 10:31:56;;;;;;;5.35;4.20;;;24.30;63.10;;;;;;5064959;28;20127;-69
2022/06/16 10:34:25;;;;;;;6.65;4.70;;;24.30;64.40;;;;;;5085259;28;20476;-70
2022/06/16 10:36:59;;;;;;;5.90;3.92;;;24.40;63.80;;;;;;5056130;28;20085;-69
2022/06/16 10:39:36;;;;;;;5.40;3.60;;;24.50;61.00;;;;;;5036914;28;20055;-71
2022/06/16 10:42:14;;;;;;;9.15;4.13;;;24.50;61.00;;;;;;5050995;28;20093;-69
2022/06/16 10:44:45;;;;;;;5.47;3.85;;;24.50;60.50;;;;;;5073334;28;20089;-69
2022/06/16 10:47:20;;;;;;;6.35;5.00;;;24.60;62.00;;;;;;5073720;28;20054;-70
2022/06/16 10:49:48;;;;;;;7.10;5.20;;;24.60;60.10;;;;;;5054539;28;20047;-72
2022/06/16 10:52:27;;;;;;;5.53;3.92;;;24.70;60.90;;;;;;5084555;28;20436;-70
2022/06/16 10:55:00;;;;;;;8.75;4.20;;;24.70;59.80;;;;;;5054531;28;20127;-70
2022/06/16 10:57:30;;;;;;;7.68;4.55;;;24.70;59.90;;;;;;5052754;28;20053;-71
2022/06/16 11:00:10;;;;;;;4.67;3.73;;;24.60;59.70;;;;;;5044026;28;20040;-70
2022/06/16 11:02:36;;;;;;;5.45;4.38;;;24.60;60.30;;;;;;5043956;28;20096;-69
2022/06/16 11:05:21;;;;;;;5.72;4.25;;;24.70;60.00;;;;;;5030286;28;20441;-70
2022/06/16 11:07:47;;;;;;;7.45;4.50;;;24.90;61.80;;;;;;5045746;28;20049;-70
2022/06/16 11:10:29;;;;;;;4.78;4.05;;;24.90;59.90;;;;;;5049951;28;20048;-70
2022/06/16 11:12:55;;;;;;;8.70;4.97;;;24.90;59.60;;;;;;5044831;28;20037;-71
2022/06/16 11:15:30;;;;;;;6.07;4.60;;;25.00;59.30;;;;;;5045406;28;20045;-70
2022/06/16 11:18:00;;;;;;;7.20;4.57;;;24.90;58.40;;;;;;5059298;28;20135;-69
2022/06/16 11:20:37;;;;;;;6.78;4.88;;;25.10;58.90;;;;;;5028680;28;20132;-74
2022/06/16 11:23:21;;;;;;;7.53;4.57;;;25.10;58.10;;;;;;5019857;28;20048;-72
2022/06/16 11:26:09;;;;;;;5.25;4.05;;;25.10;57.60;;;;;;5039426;28;20041;-70
2022/06/16 11:28:51;;;;;;;5.57;4.53;;;25.30;59.00;;;;;;5025949;28;20073;-70
2022/06/16 11:31:33;;;;;;;6.57;4.05;;;25.40;57.10;;;;;;5040277;28;20048;-70
2022/06/16 11:34:14;;;;;;;5.65;4.22;;;25.60;57.80;;;;;;5027602;28;20553;-70
2022/06/16 11:36:49;;;;;;;6.32;4.53;;;25.70;57.00;;;;;;5039651;28;20049;-70
2022/06/16 11:39:40;;;;;;;6.80;4.40;;;25.70;57.70;;;;;;5058136;28;20044;-71
2022/06/16 11:42:31;;;;;;;6.82;3.80;;;25.70;55.50;;;;;;5041899;28;20036;-70
2022/06/16 11:45:49;;;;;;;6.45;4.40;;;25.70;57.50;;;;;;5043417;28;20068;-71
2022/06/16 11:48:26;;;;;;;6.20;4.80;;;25.80;58.20;;;;;;5042811;28;20099;-71
2022/06/16 11:50:59;;;;;;;6.43;5.22;;;26.00;55.30;;;;;;5027756;28;20048;-71
2022/06/16 11:53:50;;;;;;;7.82;5.20;;;26.00;56.90;;;;;;5048714;28;20444;-70
2022/06/16 11:56:23;;;;;;;;;;;26.00;55.40;;;;;;5057464;28;20515;-71
2022/06/16 11:58:54;;;;;;;5.65;4.65;;;25.90;56.20;;;;;;5072725;28;19923;-71
2022/06/16 12:01:28;;;;;;;6.80;4.68;;;25.90;56.90;;;;;;5074890;28;20048;-71
2022/06/16 12:04:42;;;;;;;7.40;4.65;;;26.20;56.60;;;;;;5054470;28;20080;-71
2022/06/16 12:07:10;;;;;;;5.32;4.57;;;26.30;56.10;;;;;;5042187;28;20079;-71
2022/06/16 12:10:10;;;;;;;6.82;5.47;;;26.30;57.70;;;;;;5070733;28;20048;-71
2022/06/16 12:12:54;;;;;;;6.10;4.78;;;26.00;56.30;;;;;;5069011;28;20056;-71
2022/06/16 12:15:23;;;;;;;6.50;4.70;;;26.10;58.20;;;;;;5072339;28;20069;-70
2022/06/16 12:18:18;;;;;;;6.63;4.90;;;26.50;57.60;;;;;;5070198;28;20476;-70
2022/06/16 12:20:47;;;;;;;7.05;4.93;;;26.60;57.30;;;;;;5074276;28;20044;-71
2022/06/16 12:23:25;;;;;;;8.30;4.95;;;26.80;56.90;;;;;;5071071;28;20046;-71
2022/06/16 12:25:57;;;;;;;5.78;4.68;;;26.60;55.40;;;;;;5070465;28;20614;-71
2022/06/16 12:28:40;;;;;;;9.10;5.20;;;26.90;57.60;;;;;;5070848;28;20044;-70
2022/06/16 12:31:36;;;;;;;7.25;5.20;;;27.10;55.10;;;;;;5069823;28;20047;-70
2022/06/16 12:34:39;;;;;;;7.07;5.88;;;27.40;57.80;;;;;;5085563;28;20445;-71
2022/06/16 12:37:11;;;;;;;9.02;6.18;;;27.60;53.90;;;;;;5069695;28;20044;-73
2022/06/16 12:39:50;;;;;;;7.82;5.70;;;27.90;56.00;;;;;;5069046;28;20149;-71
2022/06/16 12:42:19;;;;;;;7.07;5.47;;;28.20;57.00;;;;;;5069966;28;20678;-72
2022/06/16 12:45:08;;;;;;;5.80;4.60;;;28.10;56.90;;;;;;5070743;28;20052;-71
2022/06/16 12:47:49;;;;;;;6.45;4.78;;;28.00;55.30;;;;;;5055229;28;20079;-71
2022/06/16 12:50:32;;;;;;;6.90;5.07;;;28.10;57.00;;;;;;5070424;28;20040;-71
2022/06/16 12:53:09;;;;;;;6.68;4.47;;;28.30;55.80;;;;;;5069789;28;20050;-70
2022/06/16 12:55:46;;;;;;;7.15;5.20;;;28.50;54.70;;;;;;5054743;28;20040;-70
2022/06/16 12:58:17;;;;;;;7.63;6.07;;;28.60;55.40;;;;;;5068526;28;20047;-72
2022/06/16 13:00:52;;;;;;;6.93;5.00;;;28.60;54.50;;;;;;5073935;28;20051;-72
2022/06/16 13:03:43;;;;;;;6.47;5.60;;;28.20;52.80;;;;;;5068749;28;20066;-71
2022/06/16 13:06:10;;;;;;;;;;;28.50;53.70;;;;;;5067887;28;20384;-72
2022/06/16 13:08:40;;;;;;;5.43;4.93;;;28.50;51.50;;;;;;5053366;28;20006;-71
2022/06/16 13:11:15;;;;;;;8.27;4.60;;;28.80;54.30;;;;;;5070093;28;20056;-71
2022/06/16 13:13:53;;;;;;;6.88;4.90;;;29.10;53.20;;;;;;5068768;28;20071;-70
2022/06/16 13:16:23;;;;;;;6.07;5.18;;;29.40;51.60;;;;;;5069280;28;20036;-72
2022/06/16 13:18:55;;;;;;;;;;;29.50;52.50;;;;;;5049782;28;20492;-72
2022/06/16 13:21:27;;;;;;;7.13;4.60;;;29.80;49.50;;;;;;5052121;28;19935;-72
2022/06/16 13:24:21;;;;;;;7.80;4.80;;;30.00;51.00;;;;;;5072596;28;20038;-71
2022/06/16 13:26:55;;;;;;;7.10;4.50;;;30.30;50.70;;;;;;5055884;28;20050;-72
2022/06/16 13:29:23;;;;;;;5.47;3.70;;;30.60;47.80;;;;;;5073967;28;20035;-71
2022/06/16 13:32:02;;;;;;;6.68;4.25;;;30.50;49.60;;;;;;5070706;28;20040;-73
2022/06/16 13:34:50;;;;;;;4.95;4.13;;;31.00;46.90;;;;;;5084044;28;20067;-72
2022/06/16 13:37:35;;;;;;;6.03;4.00;;;31.20;46.00;;;;;;5085356;28;20073;-73
2022/06/16 13:40:04;;;;;;;6.07;4.00;;;31.30;45.20;;;;;;5072923;28;20036;-72
2022/06/16 13:42:52;;;;;;;6.47;4.30;;;31.40;46.10;;;;;;5072632;28;20040;-71
2022/06/16 13:45:30;;;;;;;8.48;4.55;;;31.90;44.90;;;;;;5062992;28;20293;-72